Time;durP1;ratioP1;P1;durP2;ratioP2;P2;SDS_P1;SDS_P2;PMS_P1;PMS_P2;Temp;Humidity;BMP_temperature;BMP_pressure;BME280_temperature;BME280_humidity;BME280_pressure;Samples;Min_cycle;Max_cycle;Signal;HPM_P1;HPM_P2
2022/09/11 00:00:05;;;;;;;19.90;13.30;;;;;;;13.68;88.87;99656.52;129786;1273;108518;-73
2022/09/11 00:03:38;;;;;;;18.90;13.80;;;;;;;13.67;89.06;99657.03;129752;1272;110315;-73
2022/09/11 00:06:43;;;;;;;17.90;12.70;;;;;;;13.63;89.01;99653.60;129762;1273;108875;-74
2022/09/11 00:09:49;;;;;;;17.40;10.90;;;;;;;13.58;89.31;99645.95;129844;1273;107760;-73
2022/09/11 00:12:54;;;;;;;19.50;12.80;;;;;;;13.54;89.64;99648.76;129917;1273;108888;-73
2022/09/11 00:16:00;;;;;;;18.60;12.20;;;;;;;13.50;89.63;99648.60;129919;1273;108506;-73
2022/09/11 00:19:08;;;;;;;17.40;12.70;;;;;;;13.48;89.75;99651.44;128402;1273;1983910;-72
2022/09/11 00:22:13;;;;;;;18.40;12.10;;;;;;;13.45;89.50;99649.17;129801;1273;108967;-73
2022/09/11 00:25:19;;;;;;;14.60;10.30;;;;;;;13.42;89.75;99646.29;129738;1273;108869;-72
2022/09/11 00:28:26;;;;;;;15.50;11.80;;;;;;;13.43;89.98;99644.33;129855;1273;108666;-75
2022/09/11 00:31:32;;;;;;;16.10;11.40;;;;;;;13.45;89.65;99642.40;129786;1273;108692;-73
2022/09/11 00:34:38;;;;;;;12.40;9.60;;;;;;;13.47;89.52;99636.74;129874;1273;108711;-73
2022/09/11 00:37:44;;;;;;;11.60;8.60;;;;;;;13.52;89.73;99628.96;129824;1273;108729;-74
2022/09/11 00:40:50;;;;;;;12.30;8.30;;;;;;;13.60;89.65;99618.71;129710;1273;108721;-76
2022/09/11 00:43:59;;;;;;;10.00;7.30;;;;;;;13.66;89.58;99613.55;129581;1273;108595;-76
2022/09/11 00:47:08;;;;;;;12.30;9.30;;;;;;;13.72;89.42;99613.83;129956;1272;108565;-74
2022/09/11 00:50:19;;;;;;;11.80;9.20;;;;;;;13.71;89.26;99617.59;129892;1273;108610;-74
2022/09/11 00:53:29;;;;;;;12.80;9.80;;;;;;;13.63;89.65;99621.27;129819;1273;108790;-74
2022/09/11 00:56:37;;;;;;;11.60;8.90;;;;;;;13.50;89.79;99624.92;129749;1273;108660;-74
2022/09/11 00:59:46;;;;;;;11.40;7.80;;;;;;;13.41;90.13;99609.08;129867;1273;108717;-74
2022/09/11 01:02:54;;;;;;;10.50;8.60;;;;;;;13.39;90.12;99598.05;129878;1273;108696;-74
2022/09/11 01:06:00;;;;;;;12.30;9.30;;;;;;;13.46;90.04;99595.74;129810;1273;108858;-74
2022/09/11 01:09:07;;;;;;;13.60;10.30;;;;;;;13.53;89.92;99596.83;129634;1274;107724;-74
2022/09/11 01:12:23;;;;;;;13.10;10.10;;;;;;;13.49;90.41;99600.07;129693;1274;108748;-73
2022/09/11 01:15:36;;;;;;;12.00;9.30;;;;;;;13.37;90.55;99602.20;129581;1274;109248;-73
2022/09/11 01:18:51;;;;;;;13.60;10.50;;;;;;;13.31;90.50;99598.26;129756;1274;108735;-74
2022/09/11 01:22:17;;;;;;;12.40;10.00;;;;;;;13.28;90.96;99599.54;129659;1274;108777;-74
2022/09/11 01:25:31;;;;;;;11.40;9.50;;;;;;;13.28;90.81;99594.92;129586;1274;108762;-74
2022/09/11 01:28:43;;;;;;;13.10;9.40;;;;;;;13.27;90.99;99591.08;129760;1274;108612;-73
2022/09/11 01:31:56;;;;;;;13.60;9.80;;;;;;;13.23;90.83;99590.86;129869;1274;108807;-73
2022/09/11 01:35:07;;;;;;;13.30;10.20;;;;;;;13.28;91.20;99588.12;129746;1274;108887;-74
2022/09/11 01:38:21;;;;;;;13.70;10.60;;;;;;;13.29;91.17;99587.04;129713;1273;108805;-73
2022/09/11 01:41:32;;;;;;;17.50;12.20;;;;;;;13.27;91.34;99583.70;129803;1273;109053;-74
2022/09/11 01:44:41;;;;;;;16.60;11.30;;;;;;;13.25;91.62;99583.84;129677;1274;109018;-75
2022/09/11 01:47:52;;;;;;;15.20;10.60;;;;;;;13.19;91.97;99581.04;129808;1273;108708;-74
2022/09/11 01:50:59;;;;;;;17.20;11.90;;;;;;;13.15;91.87;99585.36;129653;1274;108103;-74
2022/09/11 01:54:10;;;;;;;16.30;11.50;;;;;;;13.13;92.31;99584.17;129950;1273;108708;-74
2022/09/11 01:57:24;;;;;;;16.30;11.90;;;;;;;13.14;92.03;99580.67;129751;1274;108899;-74
2022/09/11 02:00:34;;;;;;;13.30;9.70;;;;;;;13.13;92.20;99579.37;129751;1273;108860;-74
2022/09/11 02:03:43;;;;;;;14.70;9.90;;;;;;;13.14;92.21;99579.30;129671;1275;108648;-74
2022/09/11 02:06:52;;;;;;;16.20;10.00;;;;;;;13.14;92.18;99580.86;129690;1274;108781;-74
2022/09/11 02:10:08;;;;;;;12.80;10.00;;;;;;;13.14;92.76;99570.46;129736;1274;108729;-74
2022/09/11 02:13:19;;;;;;;12.10;8.80;;;;;;;13.16;92.52;99571.77;129620;1275;108806;-73
2022/09/11 02:16:34;;;;;;;12.10;8.30;;;;;;;13.13;92.93;99571.23;129560;1275;109073;-74
2022/09/11 02:19:41;;;;;;;10.30;7.80;;;;;;;13.08;92.59;99570.15;129748;1273;108975;-74
2022/09/11 02:22:48;;;;;;;10.70;8.00;;;;;;;13.13;92.92;99574.58;129678;1273;107463;-74
2022/09/11 02:25:54;;;;;;;11.90;8.30;;;;;;;13.13;92.85;99569.05;129903;1273;108767;-73
2022/09/11 02:29:00;;;;;;;11.00;8.40;;;;;;;13.13;92.88;99574.33;129640;1273;108789;-74
2022/09/11 02:32:09;;;;;;;8.40;6.30;;;;;;;13.14;92.72;99570.27;129807;1273;108841;-73
2022/09/11 02:35:16;;;;;;;7.50;5.70;;;;;;;13.09;93.73;99569.33;129968;1273;108888;-74
2022/09/11 02:38:29;;;;;;;6.40;5.20;;;;;;;13.04;93.97;99565.84;129985;1273;108979;-73
2022/09/11 02:41:41;;;;;;;7.10;5.10;;;;;;;13.02;93.73;99566.10;130109;1273;108730;-73
2022/09/11 02:44:58;;;;;;;6.60;4.90;;;;;;;12.99;94.29;99559.40;130068;1273;107713;-73
2022/09/11 02:48:28;;;;;;;5.30;4.40;;;;;;;12.92;94.44;99556.08;129886;1273;108836;-73
2022/09/11 02:51:39;;;;;;;6.00;4.40;;;;;;;12.91;94.26;99553.32;129968;1273;108808;-73
2022/09/11 02:54:53;;;;;;;5.20;4.10;;;;;;;12.92;93.95;99555.81;129881;1273;108776;-73
2022/09/11 02:58:07;;;;;;;5.70;4.20;;;;;;;12.94;93.70;99558.09;129892;1273;108917;-73
2022/09/11 03:01:14;;;;;;;5.30;3.80;;;;;;;12.93;93.89;99560.95;129844;1273;108948;-73
2022/09/11 03:04:21;;;;;;;4.50;3.80;;;;;;;12.95;93.80;99561.04;129806;1273;108668;-74
2022/09/11 03:07:27;;;;;;;4.40;4.00;;;;;;;12.91;94.35;99561.27;129794;1272;108746;-73
2022/09/11 03:10:33;;;;;;;5.80;4.50;;;;;;;12.88;94.19;99564.39;130111;1273;108751;-73
2022/09/11 03:13:39;;;;;;;5.90;4.70;;;;;;;12.86;94.20;99563.75;130067;1273;108610;-74
2022/09/11 03:16:47;;;;;;;5.90;4.10;;;;;;;12.83;94.16;99564.96;129974;1272;109199;-73
2022/09/11 03:19:53;;;;;;;5.60;4.80;;;;;;;12.82;94.52;99565.80;129979;1273;108735;-74
2022/09/11 03:22:58;;;;;;;8.10;5.30;;;;;;;12.78;94.57;99568.46;129692;1273;108882;-74
2022/09/11 03:26:03;;;;;;;7.60;6.10;;;;;;;12.75;94.99;99567.64;129745;1273;108890;-74
2022/09/11 03:29:10;;;;;;;7.30;5.40;;;;;;;12.75;94.53;99561.13;129813;1273;108914;-73
2022/09/11 03:32:16;;;;;;;8.00;5.60;;;;;;;12.76;94.44;99559.62;129885;1273;107661;-73
2022/09/11 03:35:21;;;;;;;8.60;6.30;;;;;;;12.78;94.44;99560.40;129651;1273;108912;-73
2022/09/11 03:38:27;;;;;;;9.70;7.00;;;;;;;12.78;94.66;99561.14;129801;1273;109175;-75
2022/09/11 03:41:33;;;;;;;8.00;6.20;;;;;;;12.75;94.68;99561.83;129756;1273;109021;-76
2022/09/11 03:44:39;;;;;;;9.30;6.20;;;;;;;12.74;95.01;99562.10;129841;1273;108992;-73
2022/09/11 03:47:45;;;;;;;8.20;6.70;;;;;;;12.74;95.14;99559.84;129862;1273;108445;-73
2022/09/11 03:50:50;;;;;;;9.90;7.30;;;;;;;12.75;95.10;99563.08;129790;1273;108448;-75
2022/09/11 03:53:58;;;;;;;12.60;8.90;;;;;;;12.78;94.79;99561.02;129810;1273;108705;-73
2022/09/11 03:57:04;;;;;;;10.70;7.40;;;;;;;12.75;94.90;99555.89;129858;1273;108982;-73
2022/09/11 04:00:12;;;;;;;11.10;7.70;;;;;;;12.77;94.77;99557.17;129778;1273;109227;-73
2022/09/11 04:03:29;;;;;;;10.10;7.90;;;;;;;12.77;94.68;99555.52;129865;1273;107606;-74
2022/09/11 04:06:36;;;;;;;12.20;9.00;;;;;;;12.81;94.59;99556.98;129833;1273;108946;-75
2022/09/11 04:09:42;;;;;;;11.90;9.00;;;;;;;12.81;95.46;99559.73;129777;1273;108845;-74
2022/09/11 04:12:49;;;;;;;12.90;8.80;;;;;;;12.77;95.09;99552.27;129858;1273;108723;-74
2022/09/11 04:16:02;;;;;;;11.50;8.50;;;;;;;12.79;95.17;99550.31;129810;1273;108818;-73
2022/09/11 04:19:12;;;;;;;13.50;10.00;;;;;;;12.81;95.30;99549.92;129702;1273;108719;-73
2022/09/11 04:22:19;;;;;;;12.70;9.50;;;;;;;12.80;94.80;99554.79;129866;1273;108985;-73
2022/09/11 04:25:25;;;;;;;13.30;9.30;;;;;;;12.80;94.96;99551.94;129818;1273;108111;-75
2022/09/11 04:28:35;;;;;;;12.50;8.60;;;;;;;12.80;95.14;99554.31;129697;1273;108957;-75
2022/09/11 04:31:41;;;;;;;13.10;9.30;;;;;;;12.82;94.82;99554.72;129893;1273;108709;-74
2022/09/11 04:34:48;;;;;;;11.80;8.90;;;;;;;12.86;95.03;99552.31;129839;1273;109144;-75
2022/09/11 04:37:54;;;;;;;12.70;9.50;;;;;;;12.87;94.88;99551.79;129871;1273;108794;-73
2022/09/11 04:41:03;;;;;;;13.10;9.10;;;;;;;12.88;94.99;99551.34;129923;1273;108753;-74
2022/09/11 04:44:08;;;;;;;13.60;8.90;;;;;;;12.86;95.47;99547.08;129919;1273;109094;-74
2022/09/11 04:47:19;;;;;;;12.20;8.90;;;;;;;12.85;95.07;99547.39;129944;1273;108808;-73
2022/09/11 04:50:25;;;;;;;12.70;9.70;;;;;;;12.88;94.97;99543.34;130037;1272;109026;-75
2022/09/11 04:53:48;;;;;;;15.40;10.70;;;;;;;12.89;94.96;99543.36;129968;1273;108756;-71
2022/09/11 04:56:54;;;;;;;14.00;10.30;;;;;;;12.86;95.37;99541.06;129920;1272;108664;-71
2022/09/11 05:00:00;;;;;;;14.30;10.40;;;;;;;12.84;95.51;99541.77;129929;1273;109184;-71
2022/09/11 05:03:06;;;;;;;14.50;11.00;;;;;;;12.85;96.01;99539.81;129759;1273;108756;-71
2022/09/11 05:06:15;;;;;;;14.60;11.50;;;;;;;12.87;95.23;99540.95;129930;1273;108692;-71
2022/09/11 05:09:21;;;;;;;16.50;12.40;;;;;;;12.92;95.21;99539.21;130062;1273;108851;-72
2022/09/11 05:12:27;;;;;;;14.90;11.70;;;;;;;12.93;95.35;99539.81;130059;1273;108735;-74
2022/09/11 05:15:33;;;;;;;15.80;11.70;;;;;;;12.93;95.34;99541.48;129752;1273;108879;-72
2022/09/11 05:18:42;;;;;;;15.40;11.80;;;;;;;12.93;95.16;99544.83;129938;1273;108719;-74
2022/09/11 05:21:49;;;;;;;16.70;12.20;;;;;;;12.96;95.32;99545.73;129864;1273;108819;-73
2022/09/11 05:24:55;;;;;;;16.20;12.70;;;;;;;13.01;95.25;99545.20;129917;1273;108762;-74
2022/09/11 05:28:01;;;;;;;16.10;11.70;;;;;;;13.00;95.44;99546.88;129988;1273;108320;-74
2022/09/11 05:31:12;;;;;;;16.70;12.90;;;;;;;12.99;95.33;99551.33;130212;1273;107670;-71
2022/09/11 05:34:20;;;;;;;16.30;12.50;;;;;;;12.99;95.44;99551.82;130004;1274;108504;-73
2022/09/11 05:37:26;;;;;;;16.40;12.20;;;;;;;12.98;95.53;99551.60;129809;1273;108807;-72
2022/09/11 05:40:32;;;;;;;14.90;11.90;;;;;;;13.01;95.23;99548.34;129879;1273;107891;-72
2022/09/11 05:43:39;;;;;;;15.50;11.50;;;;;;;13.06;95.45;99548.41;129945;1273;108919;-71
2022/09/11 05:46:44;;;;;;;14.10;11.00;;;;;;;13.07;95.57;99549.11;130017;1273;109077;-72
2022/09/11 05:49:50;;;;;;;14.80;11.50;;;;;;;13.06;95.48;99547.55;129924;1273;108741;-72
2022/09/11 05:52:56;;;;;;;14.90;11.00;;;;;;;13.10;95.40;99544.61;130128;1273;108858;-72
2022/09/11 05:56:07;;;;;;;16.90;12.60;;;;;;;13.14;95.68;99547.45;130047;1272;109036;-72
2022/09/11 05:59:14;;;;;;;13.90;10.60;;;;;;;13.15;95.51;99546.34;129818;1273;108857;-72
2022/09/11 06:02:20;;;;;;;13.90;10.00;;;;;;;13.18;95.37;99545.38;129896;1273;108848;-71
2022/09/11 06:05:28;;;;;;;12.50;10.30;;;;;;;13.20;95.30;99546.96;129792;1273;109768;-71
2022/09/11 06:08:35;;;;;;;15.60;12.20;;;;;;;13.20;95.54;99548.61;130002;1273;108702;-72
2022/09/11 06:11:41;;;;;;;13.80;10.60;;;;;;;13.13;95.88;99550.14;130026;1273;108759;-71
2022/09/11 06:14:46;;;;;;;13.50;10.60;;;;;;;13.08;95.76;99550.33;129865;1273;108915;-74
2022/09/11 06:17:52;;;;;;;13.00;9.50;;;;;;;13.10;95.71;99551.73;129870;1273;108841;-73
2022/09/11 06:20:59;;;;;;;12.30;9.40;;;;;;;13.13;95.72;99551.00;129861;1273;108952;-73
2022/09/11 06:24:06;;;;;;;12.40;9.30;;;;;;;13.17;95.59;99555.30;129989;1274;108829;-78
2022/09/11 06:27:13;;;;;;;13.90;9.70;;;;;;;13.21;95.44;99552.70;129871;1274;108813;-80
2022/09/11 06:30:22;;;;;;;11.70;8.80;;;;;;;13.21;95.57;99550.23;130056;1275;107854;-78
2022/09/11 06:33:30;;;;;;;11.50;9.10;;;;;;;13.17;95.78;99552.79;129802;1274;108990;-75
2022/09/11 06:36:36;;;;;;;12.90;9.40;;;;;;;13.15;95.90;99548.39;129775;1275;108908;-73
2022/09/11 06:39:44;;;;;;;14.30;9.60;;;;;;;13.14;95.70;99543.73;129964;1273;108761;-75
2022/09/11 06:42:55;;;;;;;13.00;9.40;;;;;;;13.22;95.55;99546.20;129876;1273;108987;-78
2022/09/11 06:46:08;;;;;;;15.70;11.10;;;;;;;13.25;95.46;99548.19;129776;1273;109042;-79
2022/09/11 06:49:13;;;;;;;15.70;10.60;;;;;;;13.21;95.55;99545.34;130503;1274;108666;-77
2022/09/11 06:52:38;;;;;;;14.80;10.50;;;;;;;13.23;95.61;99546.18;129813;1273;108775;-75
2022/09/11 06:55:47;;;;;;;14.80;10.80;;;;;;;13.28;95.30;99547.73;129870;1273;109022;-73
2022/09/11 06:58:54;;;;;;;15.90;10.70;;;;;;;13.33;95.56;99548.69;130376;1273;108800;-75
2022/09/11 07:02:02;;;;;;;12.90;9.50;;;;;;;13.33;95.25;99551.60;130254;1272;108703;-74
2022/09/11 07:05:09;;;;;;;13.60;9.40;;;;;;;13.33;95.39;99552.27;130337;1273;108736;-78
2022/09/11 07:08:15;;;;;;;14.10;10.10;;;;;;;13.34;95.49;99550.63;129960;1273;108751;-72
2022/09/11 07:11:22;;;;;;;13.60;10.50;;;;;;;13.35;95.44;99547.14;130022;1273;108691;-73
2022/09/11 07:14:28;;;;;;;12.70;9.10;;;;;;;13.32;95.73;99548.38;129939;1273;107562;-75
2022/09/11 07:17:41;;;;;;;12.90;9.50;;;;;;;13.34;95.99;99545.08;129843;1273;108593;-72
2022/09/11 07:20:48;;;;;;;12.40;9.60;;;;;;;13.36;95.82;99547.52;129944;1274;108890;-76
2022/09/11 07:23:57;;;;;;;14.00;9.80;;;;;;;13.42;95.88;99541.27;129856;1273;108728;-73
2022/09/11 07:27:03;;;;;;;12.30;9.30;;;;;;;13.48;95.63;99538.38;129819;1273;108968;-74
2022/09/11 07:30:14;;;;;;;11.50;8.70;;;;;;;13.56;95.84;99537.59;129899;1273;109170;-71
2022/09/11 07:33:21;;;;;;;10.50;7.50;;;;;;;13.63;95.51;99541.10;129897;1273;108993;-74
2022/09/11 07:36:31;;;;;;;12.80;8.90;;;;;;;13.68;95.67;99543.24;129946;1273;108695;-75
2022/09/11 07:39:37;;;;;;;10.80;8.50;;;;;;;13.65;95.24;99542.32;129951;1273;108844;-77
2022/09/11 07:42:45;;;;;;;11.50;8.30;;;;;;;13.64;95.17;99538.38;129876;1273;108632;-75
2022/09/11 07:45:55;;;;;;;10.60;8.30;;;;;;;13.59;95.04;99538.11;129719;1274;108812;-74
2022/09/11 07:49:01;;;;;;;10.80;8.30;;;;;;;13.53;95.25;99536.20;129698;1274;107473;-74
2022/09/11 07:52:08;;;;;;;12.10;9.00;;;;;;;13.53;95.53;99535.80;129754;1274;108856;-74
2022/09/11 07:55:23;;;;;;;12.20;9.50;;;;;;;13.49;95.48;99540.57;129685;1274;108888;-72
2022/09/11 07:58:34;;;;;;;7.20;5.90;;;;;;;13.43;95.60;99544.74;129562;1274;108742;-79
2022/09/11 08:01:41;;;;;;;6.60;4.80;;;;;;;13.37;95.01;99550.22;129859;1273;108769;-74
2022/09/11 08:04:46;;;;;;;5.60;4.50;;;;;;;13.29;95.02;99552.21;129967;1274;109052;-75
2022/09/11 08:07:52;;;;;;;5.70;4.50;;;;;;;13.24;95.00;99555.88;129612;1275;109032;-74
2022/09/11 08:11:05;;;;;;;6.40;4.80;;;;;;;13.19;94.97;99553.01;129663;1274;108741;-71
2022/09/11 08:14:12;;;;;;;5.50;4.40;;;;;;;13.13;94.91;99556.65;129722;1274;108702;-74
2022/09/11 08:17:18;;;;;;;5.40;4.40;;;;;;;13.12;95.00;99554.66;129868;1274;108747;-74
2022/09/11 08:20:25;;;;;;;6.70;5.20;;;;;;;13.14;94.85;99555.55;129923;1274;109224;-77
2022/09/11 08:23:31;;;;;;;6.70;5.10;;;;;;;13.14;94.99;99558.69;129872;1273;108825;-75
2022/09/11 08:26:39;;;;;;;7.20;5.30;;;;;;;13.11;94.98;99563.42;130022;1273;107665;-70
2022/09/11 08:29:44;;;;;;;7.50;5.50;;;;;;;13.05;95.10;99561.28;129700;1274;108559;-72
2022/09/11 08:32:50;;;;;;;9.00;5.60;;;;;;;13.00;95.42;99563.33;129779;1274;109260;-72
2022/09/11 08:35:57;;;;;;;6.00;5.30;;;;;;;13.03;95.28;99566.16;129868;1273;109050;-78
2022/09/11 08:39:04;;;;;;;7.20;5.70;;;;;;;13.01;95.57;99569.44;129623;1275;108824;-72
2022/09/11 08:42:15;;;;;;;7.20;5.70;;;;;;;12.94;96.05;99575.48;129807;1274;109277;-75
2022/09/11 08:45:26;;;;;;;8.80;6.70;;;;;;;12.93;95.72;99577.98;129753;1273;108731;-75
2022/09/11 08:48:44;;;;;;;8.20;6.30;;;;;;;12.95;95.82;99580.35;129751;1274;108737;-76
2022/09/11 08:51:51;;;;;;;8.20;6.30;;;;;;;12.98;95.98;99580.15;129834;1274;108747;-79
2022/09/11 08:54:59;;;;;;;8.80;6.70;;;;;;;13.04;95.57;99581.25;129678;1274;108951;-73
2022/09/11 08:58:14;;;;;;;10.30;6.60;;;;;;;13.06;95.68;99578.98;129790;1274;108746;-74
2022/09/11 09:01:27;;;;;;;7.80;6.40;;;;;;;13.13;95.69;99576.55;129775;1274;108746;-74
2022/09/11 09:04:50;;;;;;;11.70;7.70;;;;;;;13.20;95.56;99578.95;129829;1273;108702;-75
2022/09/11 09:08:08;;;;;;;9.00;6.30;;;;;;;13.17;95.34;99579.13;129816;1274;108543;-73
2022/09/11 09:11:27;;;;;;;9.00;6.40;;;;;;;13.14;95.33;99580.98;129824;1273;108672;-76
2022/09/11 09:14:50;;;;;;;10.60;7.80;;;;;;;13.13;94.90;99586.29;129712;1273;108754;-78
2022/09/11 09:17:59;;;;;;;9.20;6.90;;;;;;;13.20;94.73;99581.02;129724;1274;108613;-78
2022/09/11 09:21:14;;;;;;;9.90;7.10;;;;;;;13.45;94.03;99579.62;129799;1274;108788;-77
2022/09/11 09:24:20;;;;;;;10.20;6.50;;;;;;;13.64;93.71;99577.81;129559;1274;109075;-77
2022/09/11 09:27:35;;;;;;;8.80;7.30;;;;;;;13.78;93.00;99573.29;129775;1274;108788;-78
2022/09/11 09:30:49;;;;;;;8.80;7.10;;;;;;;13.94;92.61;99572.73;129954;1274;106954;-77
2022/09/11 09:34:01;;;;;;;10.40;7.40;;;;;;;14.25;92.96;99569.89;129831;1274;108803;-71
2022/09/11 09:37:06;;;;;;;;;;;;;;;14.40;91.15;99570.14;129817;1274;108717;-71
2022/09/11 09:40:17;;;;;;;9.30;6.80;;;;;;;14.36;90.36;99572.80;129863;1273;108437;-74
2022/09/11 09:43:39;;;;;;;8.50;7.00;;;;;;;14.34;91.48;99576.98;129646;1274;109026;-76
2022/09/11 09:46:47;;;;;;;8.50;7.20;;;;;;;14.40;90.39;99581.29;129739;1274;108737;-77
2022/09/11 09:49:53;;;;;;;9.70;6.70;;;;;;;14.47;90.86;99580.38;129784;1274;107727;-74
2022/09/11 09:53:07;;;;;;;7.50;6.20;;;;;;;14.52;90.32;99577.95;129915;1274;108812;-73
2022/09/11 09:56:16;;;;;;;8.40;6.80;;;;;;;14.52;89.86;99578.31;129798;1274;108757;-75
2022/09/11 09:59:26;;;;;;;7.80;6.70;;;;;;;14.46;89.30;99578.85;129641;1274;107855;-79
2022/09/11 10:02:48;;;;;;;9.50;7.90;;;;;;;14.29;88.72;99582.92;129776;1274;108711;-81
2022/09/11 10:05:55;;;;;;;9.80;8.10;;;;;;;14.06;89.26;99579.63;129585;1274;108806;-82
2022/09/11 10:09:01;;;;;;;8.80;7.50;;;;;;;13.93;89.52;99585.13;129914;1274;108851;-81
2022/09/11 10:12:15;;;;;;;8.90;6.90;;;;;;;14.07;90.40;99585.21;129910;1274;108060;-80
2022/09/11 10:15:23;;;;;;;10.80;8.20;;;;;;;14.47;90.42;99580.23;129955;1274;109591;-75
2022/09/11 10:18:45;;;;;;;9.30;7.90;;;;;;;14.77;88.71;99585.33;129811;1274;108548;-76
2022/09/11 10:21:51;;;;;;;10.70;8.00;;;;;;;14.73;87.40;99589.40;129801;1274;109098;-77
2022/09/11 10:25:10;;;;;;;10.30;8.90;;;;;;;14.57;86.54;99590.31;129842;1274;109098;-75
2022/09/11 10:28:19;;;;;;;10.10;7.70;;;;;;;14.42;86.76;99588.86;129723;1273;108728;-74
2022/09/11 10:31:25;;;;;;;10.30;8.10;;;;;;;14.36;86.71;99593.93;129688;1273;108867;-76
2022/09/11 10:34:39;;;;;;;9.10;7.70;;;;;;;14.37;87.58;99589.43;129732;1273;108836;-76
2022/09/11 10:37:45;;;;;;;8.60;7.70;;;;;;;14.40;87.16;99592.02;129772;1273;108637;-75
2022/09/11 10:41:07;;;;;;;8.10;6.40;;;;;;;14.40;87.54;99588.63;129702;1273;108977;-71
2022/09/11 10:44:17;;;;;;;11.10;7.50;;;;;;;14.42;86.57;99595.33;129582;1273;108681;-78
2022/09/11 10:47:27;;;;;;;8.80;6.70;;;;;;;14.32;86.17;99594.92;129720;1272;108667;-77
2022/09/11 10:50:33;;;;;;;9.20;7.10;;;;;;;14.29;87.06;99597.66;129781;1273;108618;-77
2022/09/11 10:53:47;;;;;;;9.70;6.70;;;;;;;14.36;87.46;99596.20;129802;1273;108736;-75
2022/09/11 10:57:04;;;;;;;8.80;7.50;;;;;;;14.42;86.69;99594.73;129675;1273;108713;-81
2022/09/11 11:00:18;;;;;;;9.70;6.70;;;;;;;14.44;86.02;99594.73;129715;1273;108761;-81
2022/09/11 11:03:27;;;;;;;8.80;6.10;;;;;;;14.41;84.75;99592.02;129638;1273;108754;-66
2022/09/11 11:06:48;;;;;;;9.00;6.30;;;;;;;14.41;85.09;99595.08;129758;1273;108998;-78
2022/09/11 11:10:08;;;;;;;9.20;6.70;;;;;;;14.36;84.42;99594.42;129775;1273;108897;-71
2022/09/11 11:13:31;;;;;;;8.90;7.00;;;;;;;14.30;84.92;99598.21;129756;1273;108719;-70
2022/09/11 11:16:44;;;;;;;;;;;;;;;14.39;84.76;99602.80;129891;1273;108986;-74
2022/09/11 11:20:05;;;;;;;10.00;7.30;;;;;;;14.52;85.03;99603.92;129771;1273;108803;-74
2022/09/11 11:23:39;;;;;;;12.30;8.10;;;;;;;14.73;84.25;99603.98;129792;1273;107744;-73
2022/09/11 11:26:58;;;;;;;9.40;7.50;;;;;;;15.05;84.99;99600.34;129714;1273;107723;-72
2022/09/11 11:30:16;;;;;;;11.10;8.30;;;;;;;15.20;82.92;99593.05;129679;1273;108692;-73
2022/09/11 11:33:55;;;;;;;9.90;7.90;;;;;;;15.14;82.58;99594.52;129680;1273;107189;-77
2022/09/11 11:37:05;;;;;;;7.80;6.20;;;;;;;14.96;82.84;99593.10;129855;1273;108729;-75
2022/09/11 11:43:21;;;;;;;8.70;7.20;;;;;;;14.84;80.70;99589.88;125895;1310;636265;-70
2022/09/11 11:46:32;;;;;;;9.10;6.90;;;;;;;14.97;80.36;99585.70;129128;1280;109964;-69
2022/09/11 11:49:52;;;;;;;11.00;6.50;;;;;;;15.13;80.63;99580.91;129132;1279;108668;-71
2022/09/11 11:53:06;;;;;;;7.40;5.80;;;;;;;15.38;80.88;99578.25;129022;1281;108717;-70
2022/09/11 11:56:18;;;;;;;6.80;5.40;;;;;;;15.60;79.73;99581.59;127999;1277;1634037;-68
2022/09/11 11:59:30;;;;;;;7.50;5.30;;;;;;;15.76;76.72;99586.06;129235;1277;108721;-69
2022/09/11 12:02:44;;;;;;;7.80;4.80;;;;;;;15.89;76.91;99591.45;129153;1277;109019;-66
2022/09/11 12:05:49;;;;;;;8.50;4.90;;;;;;;16.02;75.19;99591.52;128999;1277;108773;-67
2022/09/11 12:08:56;;;;;;;5.90;4.80;;;;;;;16.00;74.37;99589.77;129104;1277;108797;-66
2022/09/11 12:12:07;;;;;;;7.80;4.80;;;;;;;16.02;76.42;99596.12;129148;1278;108728;-67
2022/09/11 12:15:23;;;;;;;7.30;5.20;;;;;;;16.01;74.41;99589.58;129197;1277;108662;-68
2022/09/11 12:18:29;;;;;;;5.50;4.50;;;;;;;15.92;74.02;99593.83;129539;1274;108656;-67
2022/09/11 12:21:41;;;;;;;6.10;4.50;;;;;;;15.79;73.31;99597.43;129613;1274;107043;-68
2022/09/11 12:24:57;;;;;;;8.30;4.20;;;;;;;15.69;73.47;99594.20;129605;1274;108754;-69
2022/09/11 12:28:23;;;;;;;9.90;4.10;;;;;;;15.64;72.67;99605.52;129573;1274;109166;-66
2022/09/11 12:32:19;;;;;;;5.80;4.10;;;;;;;15.67;71.87;99604.32;129540;1274;108681;-65
2022/09/11 12:35:33;;;;;;;7.10;4.10;;;;;;;15.79;70.98;99605.27;129576;1274;107439;-67
2022/09/11 12:38:43;;;;;;;6.10;4.20;;;;;;;15.96;70.98;99603.44;129612;1274;109668;-67
2022/09/11 12:41:49;;;;;;;8.60;4.00;;;;;;;16.15;71.60;99595.18;129608;1274;108644;-67
2022/09/11 12:45:03;;;;;;;7.30;4.00;;;;;;;16.42;69.93;99601.02;129527;1274;108714;-66
2022/09/11 12:48:12;;;;;;;5.90;3.90;;;;;;;16.68;70.95;99589.11;129544;1274;110516;-67
2022/09/11 12:51:23;;;;;;;6.30;3.90;;;;;;;16.90;70.06;99587.86;129510;1276;108696;-67
2022/09/11 12:54:33;;;;;;;6.10;4.00;;;;;;;16.91;70.39;99585.59;129582;1274;108694;-67
2022/09/11 12:57:39;;;;;;;5.50;3.80;;;;;;;16.87;69.31;99589.52;129567;1275;108734;-66
2022/09/11 13:00:47;;;;;;;5.80;4.00;;;;;;;16.86;69.45;99584.64;129503;1275;108672;-67
2022/09/11 13:04:02;;;;;;;6.20;4.40;;;;;;;16.94;69.85;99590.35;129522;1275;109904;-67
2022/09/11 13:07:21;;;;;;;6.70;4.50;;;;;;;16.96;68.87;99590.09;129517;1274;107657;-66
2022/09/11 13:10:34;;;;;;;6.80;4.40;;;;;;;16.82;67.82;99595.99;129540;1274;108617;-66
2022/09/11 13:13:45;;;;;;;9.30;6.50;;;;;;;16.74;68.74;99594.66;129406;1277;109512;-67
2022/09/11 13:16:51;;;;;;;7.40;5.50;;;;;;;16.76;69.62;99593.51;129565;1275;108732;-66
2022/09/11 13:20:19;;;;;;;7.60;5.60;;;;;;;16.86;70.85;99587.38;129503;1272;108776;-66
2022/09/11 13:23:25;;;;;;;24.60;20.90;;;;;;;16.94;70.05;99585.38;129576;1275;108052;-68
2022/09/11 13:26:31;;;;;;;10.10;8.50;;;;;;;16.99;70.75;99584.16;129551;1277;108751;-69
2022/09/11 13:29:38;;;;;;;16.50;12.70;;;;;;;17.00;67.79;99587.86;129517;1277;109786;-67
2022/09/11 13:32:47;;;;;;;22.20;17.40;;;;;;;17.01;68.42;99588.92;129557;1275;108603;-67
2022/09/11 13:35:53;;;;;;;11.00;7.80;;;;;;;16.98;67.88;99588.55;129589;1274;108681;-68
2022/09/11 13:39:01;;;;;;;12.20;10.40;;;;;;;16.96;68.70;99588.81;129581;1274;108655;-67
2022/09/11 13:42:15;;;;;;;8.30;6.70;;;;;;;16.87;67.86;99586.46;129545;1274;108615;-66
2022/09/11 13:45:23;;;;;;;10.80;8.10;;;;;;;16.78;67.79;99587.36;129351;1277;109028;-67
2022/09/11 13:48:29;;;;;;;7.30;5.10;;;;;;;16.72;67.46;99585.34;129596;1274;108626;-67
2022/09/11 13:51:36;;;;;;;7.60;4.90;;;;;;;16.62;66.60;99582.46;129504;1274;108808;-66
2022/09/11 13:54:47;;;;;;;6.80;4.30;;;;;;;16.57;66.88;99579.73;129539;1277;106790;-67
2022/09/11 13:57:55;;;;;;;6.50;4.30;;;;;;;16.56;67.69;99584.23;129543;1274;109579;-66
2022/09/11 14:01:11;;;;;;;5.00;3.80;;;;;;;16.50;67.23;99589.55;129581;1274;108866;-67
2022/09/11 14:04:17;;;;;;;5.10;3.90;;;;;;;16.44;67.91;99585.04;129491;1274;108876;-67
2022/09/11 14:07:25;;;;;;;6.10;3.80;;;;;;;16.43;68.39;99584.45;129486;1275;107690;-66
2022/09/11 14:10:45;;;;;;;6.90;4.10;;;;;;;16.43;68.16;99586.44;129568;1275;108714;-67
2022/09/11 14:13:56;;;;;;;5.50;3.70;;;;;;;16.41;67.90;99589.44;129540;1274;109234;-66
2022/09/11 14:17:01;;;;;;;4.90;3.30;;;;;;;16.39;67.32;99588.90;129332;1277;108751;-66
2022/09/11 14:20:18;;;;;;;5.30;3.70;;;;;;;16.38;66.97;99591.12;129546;1274;108857;-66
2022/09/11 14:23:27;;;;;;;5.00;3.80;;;;;;;16.38;67.54;99590.01;129516;1274;108724;-66
2022/09/11 14:26:42;;;;;;;5.10;3.50;;;;;;;16.39;67.96;99590.35;129618;1274;109145;-74
2022/09/11 14:29:55;;;;;;;5.20;3.50;;;;;;;16.39;67.23;99590.05;129791;1277;108721;-70